sensor_id;sensor_type;location;lat;lon;timestamp;temperature;humidity
32027;DHT22;18543;50.848;4.596;2022-12-10T00:01:10;21.00;50.20
32027;DHT22;18543;50.848;4.596;2022-12-10T00:03:38;21.00;50.10
32027;DHT22;18543;50.848;4.596;2022-12-10T00:06:07;21.00;50.10
32027;DHT22;18543;50.848;4.596;2022-12-10T00:08:34;21.00;50.10
32027;DHT22;18543;50.848;4.596;2022-12-10T00:11:07;21.00;50.10
32027;DHT22;18543;50.848;4.596;2022-12-10T00:13:35;21.00;50.10
32027;DHT22;18543;50.848;4.596;2022-12-10T00:16:07;21.00;50.10
32027;DHT22;18543;50.848;4.596;2022-12-10T00:18:35;21.00;50.10
32027;DHT22;18543;50.848;4.596;2022-12-10T00:21:03;21.00;50.10
32027;DHT22;18543;50.848;4.596;2022-12-10T00:23:31;21.00;50.10
32027;DHT22;18543;50.848;4.596;2022-12-10T00:28:31;21.00;50.10
32027;DHT22;18543;50.848;4.596;2022-12-10T00:31:07;21.00;50.10
32027;DHT22;18543;50.848;4.596;2022-12-10T00:33:35;21.10;50.10
32027;DHT22;18543;50.848;4.596;2022-12-10T00:36:04;21.10;50.10
32027;DHT22;18543;50.848;4.596;2022-12-10T00:38:32;21.10;50.00
32027;DHT22;18543;50.848;4.596;2022-12-10T00:40:59;21.10;50.10
32027;DHT22;18543;50.848;4.596;2022-12-10T00:43:26;21.10;50.10
32027;DHT22;18543;50.848;4.596;2022-12-10T00:45:53;21.10;50.00
32027;DHT22;18543;50.848;4.596;2022-12-10T00:48:21;21.10;50.00
32027;DHT22;18543;50.848;4.596;2022-12-10T00:50:57;21.10;50.00
32027;DHT22;18543;50.848;4.596;2022-12-10T00:53:25;21.10;50.00
32027;DHT22;18543;50.848;4.596;2022-12-10T00:55:53;21.10;50.00
32027;DHT22;18543;50.848;4.596;2022-12-10T00:58:20;21.10;50.00
32027;DHT22;18543;50.848;4.596;2022-12-10T01:00:48;21.10;50.00
32027;DHT22;18543;50.848;4.596;2022-12-10T01:03:15;21.10;50.00
32027;DHT22;18543;50.848;4.596;2022-12-10T01:05:42;21.10;50.00
32027;DHT22;18543;50.848;4.596;2022-12-10T01:08:09;21.10;50.00
32027;DHT22;18543;50.848;4.596;2022-12-10T01:10:35;21.10;49.90
32027;DHT22;18543;50.848;4.596;2022-12-10T01:13:03;21.10;50.00
32027;DHT22;18543;50.848;4.596;2022-12-10T01:15:30;21.10;49.90
32027;DHT22;18543;50.848;4.596;2022-12-10T01:17:57;21.20;50.50
32027;DHT22;18543;50.848;4.596;2022-12-10T01:20:23;21.20;50.00
32027;DHT22;18543;50.848;4.596;2022-12-10T01:22:50;21.20;50.00
32027;DHT22;18543;50.848;4.596;2022-12-10T01:25:17;21.20;49.90
32027;DHT22;18543;50.848;4.596;2022-12-10T01:27:44;21.20;49.90
32027;DHT22;18543;50.848;4.596;2022-12-10T01:30:11;21.20;49.90
32027;DHT22;18543;50.848;4.596;2022-12-10T01:32:37;21.20;49.90
32027;DHT22;18543;50.848;4.596;2022-12-10T01:35:04;21.20;49.90
32027;DHT22;18543;50.848;4.596;2022-12-10T01:37:31;21.20;49.90
32027;DHT22;18543;50.848;4.596;2022-12-10T01:39:58;21.20;49.90
32027;DHT22;18543;50.848;4.596;2022-12-10T01:42:25;21.20;49.90
32027;DHT22;18543;50.848;4.596;2022-12-10T01:45:00;21.20;49.90
32027;DHT22;18543;50.848;4.596;2022-12-10T01:47:28;21.20;49.80
32027;DHT22;18543;50.848;4.596;2022-12-10T01:49:57;21.20;49.80
32027;DHT22;18543;50.848;4.596;2022-12-10T01:52:24;21.20;49.80
32027;DHT22;18543;50.848;4.596;2022-12-10T01:54:51;21.20;49.80
32027;DHT22;18543;50.848;4.596;2022-12-10T01:57:21;21.20;49.80
32027;DHT22;18543;50.848;4.596;2022-12-10T01:59:59;21.30;49.80
32027;DHT22;18543;50.848;4.596;2022-12-10T02:02:59;21.20;49.70
32027;DHT22;18543;50.848;4.596;2022-12-10T02:05:42;21.20;49.80
32027;DHT22;18543;50.848;4.596;2022-12-10T02:08:33;21.20;49.70
32027;DHT22;18543;50.848;4.596;2022-12-10T02:11:20;21.20;49.70
32027;DHT22;18543;50.848;4.596;2022-12-10T02:16:58;21.20;49.80
32027;DHT22;18543;50.848;4.596;2022-12-10T02:22:10;21.30;49.80
32027;DHT22;18543;50.848;4.596;2022-12-10T02:24:39;21.30;49.70
32027;DHT22;18543;50.848;4.596;2022-12-10T02:27:12;21.30;49.80
32027;DHT22;18543;50.848;4.596;2022-12-10T02:29:43;21.30;49.70
32027;DHT22;18543;50.848;4.596;2022-12-10T02:32:23;21.30;49.70
32027;DHT22;18543;50.848;4.596;2022-12-10T02:34:54;21.30;49.80
32027;DHT22;18543;50.848;4.596;2022-12-10T02:37:33;21.30;49.70
32027;DHT22;18543;50.848;4.596;2022-12-10T02:40:11;21.30;49.70
32027;DHT22;18543;50.848;4.596;2022-12-10T02:42:41;21.30;49.60
32027;DHT22;18543;50.848;4.596;2022-12-10T02:45:10;21.30;49.60
32027;DHT22;18543;50.848;4.596;2022-12-10T02:47:38;21.30;49.60
32027;DHT22;18543;50.848;4.596;2022-12-10T02:50:06;21.30;49.70
32027;DHT22;18543;50.848;4.596;2022-12-10T02:52:34;21.30;49.70
32027;DHT22;18543;50.848;4.596;2022-12-10T02:55:01;21.30;49.60
32027;DHT22;18543;50.848;4.596;2022-12-10T03:00:25;21.30;50.00
32027;DHT22;18543;50.848;4.596;2022-12-10T03:05:42;21.40;49.60
32027;DHT22;18543;50.848;4.596;2022-12-10T03:08:18;21.30;49.60
32027;DHT22;18543;50.848;4.596;2022-12-10T03:11:05;21.40;49.60
32027;DHT22;18543;50.848;4.596;2022-12-10T03:13:40;21.30;49.60
32027;DHT22;18543;50.848;4.596;2022-12-10T03:16:10;21.40;49.60
32027;DHT22;18543;50.848;4.596;2022-12-10T03:18:37;21.40;49.60
32027;DHT22;18543;50.848;4.596;2022-12-10T03:21:06;21.40;49.60
32027;DHT22;18543;50.848;4.596;2022-12-10T03:23:37;21.40;49.50
32027;DHT22;18543;50.848;4.596;2022-12-10T03:26:07;21.40;49.50
32027;DHT22;18543;50.848;4.596;2022-12-10T03:28:39;21.40;49.50
32027;DHT22;18543;50.848;4.596;2022-12-10T03:31:09;21.40;49.50
32027;DHT22;18543;50.848;4.596;2022-12-10T03:33:37;21.40;49.50
32027;DHT22;18543;50.848;4.596;2022-12-10T03:36:05;21.40;49.50
32027;DHT22;18543;50.848;4.596;2022-12-10T03:38:33;21.40;49.50
32027;DHT22;18543;50.848;4.596;2022-12-10T03:41:00;21.40;49.50
32027;DHT22;18543;50.848;4.596;2022-12-10T03:43:27;21.40;49.50
32027;DHT22;18543;50.848;4.596;2022-12-10T03:45:53;21.40;49.50
32027;DHT22;18543;50.848;4.596;2022-12-10T03:48:20;21.40;49.40
32027;DHT22;18543;50.848;4.596;2022-12-10T03:50:47;21.40;49.40
32027;DHT22;18543;50.848;4.596;2022-12-10T03:53:14;21.40;50.00
32027;DHT22;18543;50.848;4.596;2022-12-10T03:55:41;21.40;49.40
32027;DHT22;18543;50.848;4.596;2022-12-10T03:58:07;21.40;49.40
32027;DHT22;18543;50.848;4.596;2022-12-10T04:00:34;21.40;49.40
32027;DHT22;18543;50.848;4.596;2022-12-10T04:03:01;21.50;49.40
32027;DHT22;18543;50.848;4.596;2022-12-10T04:05:28;21.40;49.40
32027;DHT22;18543;50.848;4.596;2022-12-10T04:07:54;21.40;49.40
32027;DHT22;18543;50.848;4.596;2022-12-10T04:10:21;21.50;49.40
32027;DHT22;18543;50.848;4.596;2022-12-10T04:12:48;21.40;49.40
32027;DHT22;18543;50.848;4.596;2022-12-10T04:15:38;21.50;49.40
32027;DHT22;18543;50.848;4.596;2022-12-10T04:18:23;21.50;49.40
32027;DHT22;18543;50.848;4.596;2022-12-10T04:20:50;21.50;49.30
32027;DHT22;18543;50.848;4.596;2022-12-10T04:23:36;21.40;49.30
32027;DHT22;18543;50.848;4.596;2022-12-10T04:26:21;21.50;49.40
32027;DHT22;18543;50.848;4.596;2022-12-10T04:29:07;21.50;49.30
32027;DHT22;18543;50.848;4.596;2022-12-10T04:31:37;21.50;49.30
32027;DHT22;18543;50.848;4.596;2022-12-10T04:34:04;21.50;49.30
32027;DHT22;18543;50.848;4.596;2022-12-10T04:36:30;21.50;49.30
32027;DHT22;18543;50.848;4.596;2022-12-10T04:38:57;21.50;49.30
32027;DHT22;18543;50.848;4.596;2022-12-10T04:41:24;21.50;49.30
32027;DHT22;18543;50.848;4.596;2022-12-10T04:43:52;21.50;49.30
32027;DHT22;18543;50.848;4.596;2022-12-10T04:46:20;21.50;49.30
32027;DHT22;18543;50.848;4.596;2022-12-10T04:48:47;21.50;49.20
32027;DHT22;18543;50.848;4.596;2022-12-10T04:51:14;21.50;49.20
32027;DHT22;18543;50.848;4.596;2022-12-10T04:53:40;21.50;49.20
32027;DHT22;18543;50.848;4.596;2022-12-10T04:56:09;21.50;49.20
32027;DHT22;18543;50.848;4.596;2022-12-10T04:58:36;21.50;49.20
32027;DHT22;18543;50.848;4.596;2022-12-10T05:01:04;21.50;49.20
32027;DHT22;18543;50.848;4.596;2022-12-10T05:03:33;21.50;49.20
32027;DHT22;18543;50.848;4.596;2022-12-10T05:06:02;21.60;49.20
32027;DHT22;18543;50.848;4.596;2022-12-10T05:08:29;21.50;49.20
32027;DHT22;18543;50.848;4.596;2022-12-10T05:11:08;21.50;49.20
32027;DHT22;18543;50.848;4.596;2022-12-10T05:13:36;21.60;49.20
32027;DHT22;18543;50.848;4.596;2022-12-10T05:16:05;21.50;49.20
32027;DHT22;18543;50.848;4.596;2022-12-10T05:18:33;21.50;49.10
32027;DHT22;18543;50.848;4.596;2022-12-10T05:21:01;21.50;49.10
32027;DHT22;18543;50.848;4.596;2022-12-10T05:23:28;21.60;49.20
32027;DHT22;18543;50.848;4.596;2022-12-10T05:26:05;21.50;49.20
32027;DHT22;18543;50.848;4.596;2022-12-10T05:28:38;21.50;49.10
32027;DHT22;18543;50.848;4.596;2022-12-10T05:31:11;21.60;49.20
32027;DHT22;18543;50.848;4.596;2022-12-10T05:33:37;21.60;49.20
32027;DHT22;18543;50.848;4.596;2022-12-10T05:36:05;21.60;49.10
32027;DHT22;18543;50.848;4.596;2022-12-10T05:38:33;21.60;49.10
32027;DHT22;18543;50.848;4.596;2022-12-10T05:41:04;21.60;49.20
32027;DHT22;18543;50.848;4.596;2022-12-10T05:43:31;21.60;49.10
32027;DHT22;18543;50.848;4.596;2022-12-10T05:46:00;21.60;49.10
32027;DHT22;18543;50.848;4.596;2022-12-10T05:48:28;21.60;49.10
32027;DHT22;18543;50.848;4.596;2022-12-10T05:50:56;21.60;49.10
32027;DHT22;18543;50.848;4.596;2022-12-10T05:53:23;21.60;49.10
32027;DHT22;18543;50.848;4.596;2022-12-10T05:55:59;21.60;49.10
32027;DHT22;18543;50.848;4.596;2022-12-10T05:58:27;21.60;49.00
32027;DHT22;18543;50.848;4.596;2022-12-10T06:00:58;21.60;49.00
32027;DHT22;18543;50.848;4.596;2022-12-10T06:03:28;21.60;49.00
32027;DHT22;18543;50.848;4.596;2022-12-10T06:05:55;21.60;49.00
32027;DHT22;18543;50.848;4.596;2022-12-10T06:08:22;21.60;49.00
32027;DHT22;18543;50.848;4.596;2022-12-10T06:10:49;21.60;49.00
32027;DHT22;18543;50.848;4.596;2022-12-10T06:13:16;21.60;49.00
32027;DHT22;18543;50.848;4.596;2022-12-10T06:15:43;21.70;49.10
32027;DHT22;18543;50.848;4.596;2022-12-10T06:18:10;21.60;49.00
32027;DHT22;18543;50.848;4.596;2022-12-10T06:20:40;21.60;49.00
32027;DHT22;18543;50.848;4.596;2022-12-10T06:23:13;21.60;49.00
32027;DHT22;18543;50.848;4.596;2022-12-10T06:25:40;21.60;49.00
32027;DHT22;18543;50.848;4.596;2022-12-10T06:28:07;21.60;49.00
32027;DHT22;18543;50.848;4.596;2022-12-10T06:30:34;21.60;49.00
32027;DHT22;18543;50.848;4.596;2022-12-10T06:33:01;21.60;48.90
32027;DHT22;18543;50.848;4.596;2022-12-10T06:35:28;21.70;49.00
32027;DHT22;18543;50.848;4.596;2022-12-10T06:37:55;21.60;49.00
32027;DHT22;18543;50.848;4.596;2022-12-10T06:40:22;21.70;49.00
32027;DHT22;18543;50.848;4.596;2022-12-10T06:42:51;21.70;49.00
32027;DHT22;18543;50.848;4.596;2022-12-10T06:45:20;21.70;49.00
32027;DHT22;18543;50.848;4.596;2022-12-10T06:47:47;21.70;49.00
32027;DHT22;18543;50.848;4.596;2022-12-10T06:50:16;21.60;48.90
32027;DHT22;18543;50.848;4.596;2022-12-10T06:52:43;21.70;49.00
32027;DHT22;18543;50.848;4.596;2022-12-10T06:55:09;21.70;49.00
32027;DHT22;18543;50.848;4.596;2022-12-10T06:57:36;21.70;48.90
32027;DHT22;18543;50.848;4.596;2022-12-10T07:00:04;21.70;48.90
32027;DHT22;18543;50.848;4.596;2022-12-10T07:02:31;21.70;48.90
32027;DHT22;18543;50.848;4.596;2022-12-10T07:04:59;21.70;48.90
32027;DHT22;18543;50.848;4.596;2022-12-10T07:07:26;21.70;48.90
32027;DHT22;18543;50.848;4.596;2022-12-10T07:09:53;21.70;48.90
32027;DHT22;18543;50.848;4.596;2022-12-10T07:12:20;21.70;48.90
32027;DHT22;18543;50.848;4.596;2022-12-10T07:14:46;21.70;48.90
32027;DHT22;18543;50.848;4.596;2022-12-10T07:17:13;21.70;48.90
32027;DHT22;18543;50.848;4.596;2022-12-10T07:19:42;21.70;48.90
32027;DHT22;18543;50.848;4.596;2022-12-10T07:22:09;21.70;49.40
32027;DHT22;18543;50.848;4.596;2022-12-10T07:24:36;21.70;48.80
32027;DHT22;18543;50.848;4.596;2022-12-10T07:27:07;21.70;49.40
32027;DHT22;18543;50.848;4.596;2022-12-10T07:29:34;21.70;48.90
32027;DHT22;18543;50.848;4.596;2022-12-10T07:32:03;21.70;48.80
32027;DHT22;18543;50.848;4.596;2022-12-10T07:34:30;21.70;49.40
32027;DHT22;18543;50.848;4.596;2022-12-10T07:36:57;21.70;48.80
32027;DHT22;18543;50.848;4.596;2022-12-10T07:39:23;21.70;48.80
32027;DHT22;18543;50.848;4.596;2022-12-10T07:41:52;21.70;48.80
32027;DHT22;18543;50.848;4.596;2022-12-10T07:44:21;21.70;48.70
32027;DHT22;18543;50.848;4.596;2022-12-10T07:46:49;21.70;48.80
32027;DHT22;18543;50.848;4.596;2022-12-10T07:49:16;21.70;48.70
32027;DHT22;18543;50.848;4.596;2022-12-10T07:51:45;21.70;48.70
32027;DHT22;18543;50.848;4.596;2022-12-10T07:54:13;21.70;48.80
32027;DHT22;18543;50.848;4.596;2022-12-10T07:56:40;21.70;48.70
32027;DHT22;18543;50.848;4.596;2022-12-10T07:59:07;21.70;48.70
32027;DHT22;18543;50.848;4.596;2022-12-10T08:01:33;21.70;48.70
32027;DHT22;18543;50.848;4.596;2022-12-10T08:04:00;21.70;48.70
32027;DHT22;18543;50.848;4.596;2022-12-10T08:06:30;21.70;48.70
32027;DHT22;18543;50.848;4.596;2022-12-10T08:08:58;21.80;48.70
32027;DHT22;18543;50.848;4.596;2022-12-10T08:11:26;21.70;48.70
32027;DHT22;18543;50.848;4.596;2022-12-10T08:13:53;21.70;48.60
32027;DHT22;18543;50.848;4.596;2022-12-10T08:16:25;21.70;48.60
32027;DHT22;18543;50.848;4.596;2022-12-10T08:18:54;21.70;48.60
32027;DHT22;18543;50.848;4.596;2022-12-10T08:21:24;21.80;48.60
32027;DHT22;18543;50.848;4.596;2022-12-10T08:23:51;21.70;48.60
32027;DHT22;18543;50.848;4.596;2022-12-10T08:26:22;21.70;48.60
32027;DHT22;18543;50.848;4.596;2022-12-10T08:28:51;21.70;48.60
32027;DHT22;18543;50.848;4.596;2022-12-10T08:31:20;21.70;48.60
32027;DHT22;18543;50.848;4.596;2022-12-10T08:33:47;21.70;48.60
32027;DHT22;18543;50.848;4.596;2022-12-10T08:36:15;21.70;48.60
32027;DHT22;18543;50.848;4.596;2022-12-10T08:38:43;21.70;48.60
32027;DHT22;18543;50.848;4.596;2022-12-10T08:41:18;21.70;48.60
32027;DHT22;18543;50.848;4.596;2022-12-10T08:43:46;21.70;48.50
32027;DHT22;18543;50.848;4.596;2022-12-10T08:46:14;21.70;49.10
32027;DHT22;18543;50.848;4.596;2022-12-10T08:48:42;21.70;48.60
32027;DHT22;18543;50.848;4.596;2022-12-10T08:51:12;21.70;48.60
32027;DHT22;18543;50.848;4.596;2022-12-10T08:53:42;21.70;48.50
32027;DHT22;18543;50.848;4.596;2022-12-10T08:56:09;21.70;48.60
32027;DHT22;18543;50.848;4.596;2022-12-10T08:58:37;21.70;48.60
32027;DHT22;18543;50.848;4.596;2022-12-10T09:01:07;21.70;48.60
32027;DHT22;18543;50.848;4.596;2022-12-10T09:03:35;21.70;48.50
32027;DHT22;18543;50.848;4.596;2022-12-10T09:06:04;21.70;48.50
32027;DHT22;18543;50.848;4.596;2022-12-10T09:08:30;21.70;48.50
32027;DHT22;18543;50.848;4.596;2022-12-10T09:10:57;21.70;48.50
32027;DHT22;18543;50.848;4.596;2022-12-10T09:13:24;21.70;48.50
32027;DHT22;18543;50.848;4.596;2022-12-10T09:15:52;21.70;48.50
32027;DHT22;18543;50.848;4.596;2022-12-10T09:18:19;21.70;48.40
32027;DHT22;18543;50.848;4.596;2022-12-10T09:20:46;21.70;48.40
32027;DHT22;18543;50.848;4.596;2022-12-10T09:23:13;21.70;48.40
32027;DHT22;18543;50.848;4.596;2022-12-10T09:25:40;21.70;48.40
32027;DHT22;18543;50.848;4.596;2022-12-10T09:28:07;21.70;48.40
32027;DHT22;18543;50.848;4.596;2022-12-10T09:30:34;21.70;48.40
32027;DHT22;18543;50.848;4.596;2022-12-10T09:33:01;21.70;48.40
32027;DHT22;18543;50.848;4.596;2022-12-10T09:35:30;21.70;48.40
32027;DHT22;18543;50.848;4.596;2022-12-10T09:37:57;21.70;48.30
32027;DHT22;18543;50.848;4.596;2022-12-10T09:40:41;21.70;48.40
32027;DHT22;18543;50.848;4.596;2022-12-10T09:43:25;21.70;48.30
32027;DHT22;18543;50.848;4.596;2022-12-10T09:48:32;21.60;46.40
32027;DHT22;18543;50.848;4.596;2022-12-10T09:51:10;21.60;45.10
32027;DHT22;18543;50.848;4.596;2022-12-10T09:53:40;21.50;44.40
32027;DHT22;18543;50.848;4.596;2022-12-10T09:56:21;21.40;43.40
32027;DHT22;18543;50.848;4.596;2022-12-10T09:58:48;21.20;41.70
32027;DHT22;18543;50.848;4.596;2022-12-10T10:01:19;21.00;41.00
32027;DHT22;18543;50.848;4.596;2022-12-10T10:03:47;20.30;39.10
32027;DHT22;18543;50.848;4.596;2022-12-10T10:06:15;20.10;40.70
32027;DHT22;18543;50.848;4.596;2022-12-10T10:09:02;19.80;41.20
32027;DHT22;18543;50.848;4.596;2022-12-10T10:11:32;19.70;41.50
32027;DHT22;18543;50.848;4.596;2022-12-10T10:14:28;19.50;41.70
32027;DHT22;18543;50.848;4.596;2022-12-10T10:17:02;19.40;42.00
32027;DHT22;18543;50.848;4.596;2022-12-10T10:19:34;19.40;42.10
32027;DHT22;18543;50.848;4.596;2022-12-10T10:22:04;19.30;42.00
32027;DHT22;18543;50.848;4.596;2022-12-10T10:24:40;19.20;42.10
32027;DHT22;18543;50.848;4.596;2022-12-10T10:29:44;19.10;42.10
32027;DHT22;18543;50.848;4.596;2022-12-10T10:32:44;19.00;41.90
32027;DHT22;18543;50.848;4.596;2022-12-10T10:38:47;18.80;41.50
32027;DHT22;18543;50.848;4.596;2022-12-10T10:41:14;18.60;41.40
32027;DHT22;18543;50.848;4.596;2022-12-10T10:43:42;18.60;41.40
32027;DHT22;18543;50.848;4.596;2022-12-10T10:46:17;18.50;41.50
32027;DHT22;18543;50.848;4.596;2022-12-10T10:48:48;18.40;41.30
32027;DHT22;18543;50.848;4.596;2022-12-10T10:51:21;18.30;41.40
32027;DHT22;18543;50.848;4.596;2022-12-10T10:53:51;18.20;41.50
32027;DHT22;18543;50.848;4.596;2022-12-10T10:59:00;18.10;41.50
32027;DHT22;18543;50.848;4.596;2022-12-10T11:01:48;18.00;41.70
32027;DHT22;18543;50.848;4.596;2022-12-10T11:07:04;17.70;42.00
32027;DHT22;18543;50.848;4.596;2022-12-10T11:09:33;17.40;41.90
32027;DHT22;18543;50.848;4.596;2022-12-10T11:12:20;17.30;42.20
32027;DHT22;18543;50.848;4.596;2022-12-10T11:14:48;17.30;42.40
32027;DHT22;18543;50.848;4.596;2022-12-10T11:19:56;16.80;42.20
32027;DHT22;18543;50.848;4.596;2022-12-10T11:22:30;16.80;43.30
32027;DHT22;18543;50.848;4.596;2022-12-10T11:24:58;16.70;43.80
32027;DHT22;18543;50.848;4.596;2022-12-10T11:30:17;16.80;44.60
32027;DHT22;18543;50.848;4.596;2022-12-10T11:35:50;17.00;45.90
32027;DHT22;18543;50.848;4.596;2022-12-10T11:38:44;17.10;46.40
32027;DHT22;18543;50.848;4.596;2022-12-10T11:44:16;17.30;47.30
32027;DHT22;18543;50.848;4.596;2022-12-10T11:52:32;17.40;48.40
32027;DHT22;18543;50.848;4.596;2022-12-10T12:00:48;17.40;49.40
32027;DHT22;18543;50.848;4.596;2022-12-10T12:07:12;17.50;50.00
32027;DHT22;18543;50.848;4.596;2022-12-10T12:09:23;17.50;50.20
32027;DHT22;18543;50.848;4.596;2022-12-10T12:12:03;17.60;50.40
32027;DHT22;18543;50.848;4.596;2022-12-10T12:14:43;17.50;50.30
32027;DHT22;18543;50.848;4.596;2022-12-10T12:17:19;17.60;50.60
32027;DHT22;18543;50.848;4.596;2022-12-10T12:20:02;17.50;50.90
32027;DHT22;18543;50.848;4.596;2022-12-10T12:22:34;17.50;51.00
32027;DHT22;18543;50.848;4.596;2022-12-10T12:25:18;17.50;51.20
32027;DHT22;18543;50.848;4.596;2022-12-10T12:28:00;17.50;51.40
32027;DHT22;18543;50.848;4.596;2022-12-10T12:30:32;17.50;51.60
32027;DHT22;18543;50.848;4.596;2022-12-10T12:33:23;17.50;51.80
32027;DHT22;18543;50.848;4.596;2022-12-10T12:35:58;17.50;51.90
32027;DHT22;18543;50.848;4.596;2022-12-10T12:41:10;17.50;52.10
32027;DHT22;18543;50.848;4.596;2022-12-10T12:43:51;17.40;49.40
32027;DHT22;18543;50.848;4.596;2022-12-10T12:46:42;17.30;48.10
32027;DHT22;18543;50.848;4.596;2022-12-10T12:49:35;17.20;49.40
32027;DHT22;18543;50.848;4.596;2022-12-10T12:54:54;17.40;51.50
32027;DHT22;18543;50.848;4.596;2022-12-10T12:57:46;17.40;51.80
32027;DHT22;18543;50.848;4.596;2022-12-10T13:00:18;17.50;51.00
32027;DHT22;18543;50.848;4.596;2022-12-10T13:02:59;17.40;48.90
32027;DHT22;18543;50.848;4.596;2022-12-10T13:05:35;17.30;48.60
32027;DHT22;18543;50.848;4.596;2022-12-10T13:10:52;17.30;49.20
32027;DHT22;18543;50.848;4.596;2022-12-10T13:13:32;17.30;47.60
32027;DHT22;18543;50.848;4.596;2022-12-10T13:22:02;17.30;50.10
32027;DHT22;18543;50.848;4.596;2022-12-10T13:30:04;17.50;51.30
32027;DHT22;18543;50.848;4.596;2022-12-10T13:37:57;17.60;51.70
32027;DHT22;18543;50.848;4.596;2022-12-10T13:43:36;17.70;51.90
32027;DHT22;18543;50.848;4.596;2022-12-10T13:49:00;17.80;52.10
32027;DHT22;18543;50.848;4.596;2022-12-10T13:56:51;17.80;52.30
32027;DHT22;18543;50.848;4.596;2022-12-10T14:02:22;17.90;52.40
32027;DHT22;18543;50.848;4.596;2022-12-10T14:05:03;17.90;52.50
32027;DHT22;18543;50.848;4.596;2022-12-10T14:07:34;18.00;52.50
32027;DHT22;18543;50.848;4.596;2022-12-10T14:10:01;18.00;52.60
32027;DHT22;18543;50.848;4.596;2022-12-10T14:12:34;18.00;52.60
32027;DHT22;18543;50.848;4.596;2022-12-10T14:15:15;18.00;52.60
32027;DHT22;18543;50.848;4.596;2022-12-10T14:17:44;18.10;52.70
32027;DHT22;18543;50.848;4.596;2022-12-10T14:20:23;18.10;52.70
32027;DHT22;18543;50.848;4.596;2022-12-10T14:22:53;18.10;52.80
32027;DHT22;18543;50.848;4.596;2022-12-10T14:25:22;18.10;52.70
32027;DHT22;18543;50.848;4.596;2022-12-10T14:27:51;18.10;52.80
32027;DHT22;18543;50.848;4.596;2022-12-10T14:30:21;18.10;52.80
32027;DHT22;18543;50.848;4.596;2022-12-10T14:32:50;18.20;52.90
32027;DHT22;18543;50.848;4.596;2022-12-10T14:35:23;18.20;52.90
32027;DHT22;18543;50.848;4.596;2022-12-10T14:37:53;18.20;52.90
32027;DHT22;18543;50.848;4.596;2022-12-10T14:40:32;18.20;53.00
32027;DHT22;18543;50.848;4.596;2022-12-10T14:43:14;18.30;53.00
32027;DHT22;18543;50.848;4.596;2022-12-10T14:45:47;18.30;53.10
32027;DHT22;18543;50.848;4.596;2022-12-10T14:48:18;18.30;52.70
32027;DHT22;18543;50.848;4.596;2022-12-10T14:50:47;18.20;50.20
32027;DHT22;18543;50.848;4.596;2022-12-10T14:53:17;18.10;48.30
32027;DHT22;18543;50.848;4.596;2022-12-10T14:55:53;18.00;47.40
32027;DHT22;18543;50.848;4.596;2022-12-10T15:01:06;17.80;46.80
32027;DHT22;18543;50.848;4.596;2022-12-10T15:03:39;17.70;46.40
32027;DHT22;18543;50.848;4.596;2022-12-10T15:06:09;17.70;46.70
32027;DHT22;18543;50.848;4.596;2022-12-10T15:08:37;17.70;47.70
32027;DHT22;18543;50.848;4.596;2022-12-10T15:11:04;17.70;48.30
32027;DHT22;18543;50.848;4.596;2022-12-10T15:13:33;17.80;49.00
32027;DHT22;18543;50.848;4.596;2022-12-10T15:16:01;17.80;49.60
32027;DHT22;18543;50.848;4.596;2022-12-10T15:18:38;17.90;50.10
32027;DHT22;18543;50.848;4.596;2022-12-10T15:23:40;18.00;50.80
32027;DHT22;18543;50.848;4.596;2022-12-10T15:26:27;18.00;50.90
32027;DHT22;18543;50.848;4.596;2022-12-10T15:29:27;18.40;51.50
32027;DHT22;18543;50.848;4.596;2022-12-10T15:32:10;18.80;51.40
32027;DHT22;18543;50.848;4.596;2022-12-10T15:34:48;19.00;50.60
32027;DHT22;18543;50.848;4.596;2022-12-10T15:37:22;19.10;49.90
32027;DHT22;18543;50.848;4.596;2022-12-10T15:39:53;19.00;50.10
32027;DHT22;18543;50.848;4.596;2022-12-10T15:42:31;19.00;50.50
32027;DHT22;18543;50.848;4.596;2022-12-10T15:45:02;18.90;50.70
32027;DHT22;18543;50.848;4.596;2022-12-10T15:47:32;18.90;51.00
32027;DHT22;18543;50.848;4.596;2022-12-10T15:49:59;18.90;51.20
32027;DHT22;18543;50.848;4.596;2022-12-10T15:52:28;18.90;51.30
32027;DHT22;18543;50.848;4.596;2022-12-10T15:54:56;18.90;51.50
32027;DHT22;18543;50.848;4.596;2022-12-10T15:57:30;18.90;51.60
32027;DHT22;18543;50.848;4.596;2022-12-10T15:59:59;18.90;51.70
32027;DHT22;18543;50.848;4.596;2022-12-10T16:05:00;18.90;52.50
32027;DHT22;18543;50.848;4.596;2022-12-10T16:07:27;18.90;52.10
32027;DHT22;18543;50.848;4.596;2022-12-10T16:09:53;19.00;52.20
32027;DHT22;18543;50.848;4.596;2022-12-10T16:12:20;19.00;52.20
32027;DHT22;18543;50.848;4.596;2022-12-10T16:14:52;19.00;52.30
32027;DHT22;18543;50.848;4.596;2022-12-10T16:17:22;19.00;52.40
32027;DHT22;18543;50.848;4.596;2022-12-10T16:19:49;19.00;52.50
32027;DHT22;18543;50.848;4.596;2022-12-10T16:22:16;19.00;52.50
32027;DHT22;18543;50.848;4.596;2022-12-10T16:24:43;19.10;52.60
32027;DHT22;18543;50.848;4.596;2022-12-10T16:27:13;19.10;52.60
32027;DHT22;18543;50.848;4.596;2022-12-10T16:29:41;19.10;52.60
32027;DHT22;18543;50.848;4.596;2022-12-10T16:32:11;19.10;52.70
32027;DHT22;18543;50.848;4.596;2022-12-10T16:34:39;19.10;52.80
32027;DHT22;18543;50.848;4.596;2022-12-10T16:37:06;19.10;53.00
32027;DHT22;18543;50.848;4.596;2022-12-10T16:39:33;19.10;53.10
32027;DHT22;18543;50.848;4.596;2022-12-10T16:42:00;19.10;53.20
32027;DHT22;18543;50.848;4.596;2022-12-10T16:44:27;19.10;53.20
32027;DHT22;18543;50.848;4.596;2022-12-10T16:46:54;19.10;53.30
32027;DHT22;18543;50.848;4.596;2022-12-10T16:49:21;19.10;53.40
32027;DHT22;18543;50.848;4.596;2022-12-10T16:51:47;19.10;53.50
32027;DHT22;18543;50.848;4.596;2022-12-10T16:54:16;19.10;53.60
32027;DHT22;18543;50.848;4.596;2022-12-10T16:56:43;19.00;53.70
32027;DHT22;18543;50.848;4.596;2022-12-10T16:59:10;19.10;53.70
32027;DHT22;18543;50.848;4.596;2022-12-10T17:01:38;19.10;53.90
32027;DHT22;18543;50.848;4.596;2022-12-10T17:04:04;19.10;53.90
32027;DHT22;18543;50.848;4.596;2022-12-10T17:06:32;19.10;53.70
32027;DHT22;18543;50.848;4.596;2022-12-10T17:08:59;19.10;53.00
32027;DHT22;18543;50.848;4.596;2022-12-10T17:11:31;19.10;53.70
32027;DHT22;18543;50.848;4.596;2022-12-10T17:14:24;19.10;53.90
32027;DHT22;18543;50.848;4.596;2022-12-10T17:16:53;19.10;54.00
32027;DHT22;18543;50.848;4.596;2022-12-10T17:19:22;19.10;54.10
32027;DHT22;18543;50.848;4.596;2022-12-10T17:21:50;19.20;54.10
32027;DHT22;18543;50.848;4.596;2022-12-10T17:24:17;19.20;54.20
32027;DHT22;18543;50.848;4.596;2022-12-10T17:26:46;19.10;52.00
32027;DHT22;18543;50.848;4.596;2022-12-10T17:29:22;19.10;52.30
32027;DHT22;18543;50.848;4.596;2022-12-10T17:31:49;19.10;53.00
32027;DHT22;18543;50.848;4.596;2022-12-10T17:34:16;19.10;53.40